createdAt,value
2019-06-10T00:01:26.444Z,23.00
2019-06-10T00:03:58.130Z,23.10
2019-06-10T00:06:30.960Z,23.10
2019-06-10T00:09:06.497Z,23.10
2019-06-10T00:11:37.213Z,23.20
2019-06-10T00:14:08.005Z,23.20
2019-06-10T00:16:41.174Z,23.10
2019-06-10T00:19:13.468Z,23.10
2019-06-10T00:21:44.078Z,23.10
2019-06-10T00:24:14.711Z,23.00
2019-06-10T00:26:47.972Z,23.00
2019-06-10T00:29:18.508Z,22.60
2019-06-10T00:31:50.824Z,23.00
2019-06-10T00:34:22.259Z,23.00
2019-06-10T00:36:52.940Z,23.00
2019-06-10T00:39:23.523Z,23.00
2019-06-10T00:41:54.182Z,22.80
2019-06-10T00:44:25.471Z,22.60
2019-06-10T00:46:56.149Z,22.70
2019-06-10T00:49:26.721Z,22.70
2019-06-10T00:51:57.413Z,22.60
2019-06-10T00:54:28.036Z,22.50
2019-06-10T00:57:01.172Z,22.50
2019-06-10T00:59:32.055Z,22.50
2019-06-10T01:02:03.358Z,22.40
2019-06-10T01:04:35.295Z,22.30
2019-06-10T01:07:06.544Z,22.30
2019-06-10T01:09:37.221Z,22.30
2019-06-10T01:12:09.054Z,22.20
2019-06-10T01:14:41.202Z,22.20
2019-06-10T01:17:15.256Z,22.20
2019-06-10T01:19:45.210Z,22.20
2019-06-10T01:22:17.349Z,22.30
2019-06-10T01:24:48.126Z,22.40
2019-06-10T01:27:21.060Z,22.50
2019-06-10T01:29:51.227Z,22.50
2019-06-10T01:32:22.111Z,22.50
2019-06-10T01:34:52.753Z,22.60
2019-06-10T01:37:25.884Z,22.50
2019-06-10T01:39:56.540Z,22.50
2019-06-10T01:42:27.095Z,22.50
2019-06-10T01:44:57.585Z,22.60
2019-06-10T01:47:30.979Z,22.70
2019-06-10T01:50:01.744Z,22.80
2019-06-10T01:52:32.266Z,22.90
2019-06-10T01:55:02.951Z,22.90
2019-06-10T01:57:33.675Z,23.00
2019-06-10T02:00:09.222Z,23.10
2019-06-10T02:02:37.368Z,23.00
2019-06-10T02:05:11.536Z,22.90
2019-06-10T02:07:41.302Z,22.80
2019-06-10T02:10:15.626Z,22.60
2019-06-10T02:12:44.415Z,22.60
2019-06-10T02:15:15.615Z,22.70
2019-06-10T02:17:47.202Z,22.70
2019-06-10T02:20:19.383Z,22.80
2019-06-10T02:22:51.581Z,22.90
2019-06-10T02:25:23.004Z,22.90
2019-06-10T02:27:53.611Z,22.80
2019-06-10T02:30:40.344Z,22.80
2019-06-10T02:32:58.075Z,22.70
2019-06-10T02:35:40.100Z,22.80
2019-06-10T02:38:03.549Z,22.60
2019-06-10T02:40:36.503Z,22.60
2019-06-10T02:43:07.333Z,22.60
2019-06-10T02:45:38.124Z,21.80
2019-06-10T02:48:08.733Z,22.70
2019-06-10T02:51:04.279Z,22.70
2019-06-10T02:53:36.629Z,22.70
2019-06-10T02:56:08.909Z,22.80
2019-06-10T02:58:40.275Z,22.80
2019-06-10T03:01:16.316Z,22.80
2019-06-10T03:03:49.406Z,22.80
2019-06-10T03:06:21.329Z,22.70
2019-06-10T03:08:50.263Z,22.70
2019-06-10T03:11:27.022Z,22.60
2019-06-10T03:13:53.208Z,22.60
2019-06-10T03:16:34.411Z,22.60
2019-06-10T03:19:05.703Z,22.70
2019-06-10T03:21:36.287Z,22.60
2019-06-10T03:24:06.851Z,22.60
2019-06-10T03:26:37.561Z,22.70
2019-06-10T03:29:08.078Z,22.70
2019-06-10T03:31:43.275Z,22.70
2019-06-10T03:34:14.367Z,22.70
2019-06-10T03:36:43.700Z,22.70
2019-06-10T03:39:14.271Z,22.70
2019-06-10T03:41:45.117Z,22.70
2019-06-10T03:44:16.846Z,22.70
2019-06-10T03:46:47.778Z,22.70
2019-06-10T03:49:19.132Z,22.60
2019-06-10T03:51:52.954Z,22.50
2019-06-10T03:54:27.316Z,22.50
2019-06-10T03:56:55.609Z,22.50
2019-06-10T03:59:29.067Z,22.40
2019-06-10T04:01:58.698Z,22.40
2019-06-10T04:04:29.558Z,22.40
2019-06-10T04:07:03.567Z,22.30
2019-06-10T04:09:33.068Z,22.30
2019-06-10T04:12:03.689Z,22.20
2019-06-10T04:14:36.036Z,22.30
2019-06-10T04:17:06.650Z,22.20
2019-06-10T04:19:37.288Z,22.10
2019-06-10T04:22:07.819Z,22.10
2019-06-10T04:24:38.722Z,22.10
2019-06-10T04:27:09.305Z,22.30
2019-06-10T04:29:42.063Z,22.30
2019-06-10T04:32:12.300Z,22.50
2019-06-10T04:34:43.433Z,22.60
2019-06-10T04:37:14.092Z,22.70
2019-06-10T04:39:44.801Z,22.80
2019-06-10T04:42:15.447Z,22.90
2019-06-10T04:44:46.678Z,22.90
2019-06-10T04:47:18.535Z,23.00
2019-06-10T04:49:52.109Z,23.00
2019-06-10T04:52:23.625Z,23.10
2019-06-10T04:54:55.343Z,23.20
2019-06-10T04:57:28.026Z,23.20
2019-06-10T04:59:58.844Z,23.30
2019-06-10T05:02:30.796Z,23.30
2019-06-10T05:05:03.916Z,23.30
2019-06-10T05:07:37.116Z,23.20
2019-06-10T05:10:09.111Z,23.20
2019-06-10T05:12:39.651Z,23.20
2019-06-10T05:15:12.541Z,23.40
2019-06-10T05:17:43.910Z,23.50
2019-06-10T05:20:15.168Z,23.50
2019-06-10T05:22:45.929Z,23.60
2019-06-10T05:25:16.648Z,23.50
2019-06-10T05:27:48.043Z,23.60
2019-06-10T05:30:20.030Z,23.60
2019-06-10T05:32:52.370Z,23.60
2019-06-10T05:35:24.235Z,23.50
2019-06-10T05:37:55.602Z,23.60
2019-06-10T05:40:27.606Z,23.30
2019-06-10T05:42:58.273Z,23.70
2019-06-10T05:45:29.414Z,23.90
2019-06-10T05:48:02.838Z,24.10
2019-06-10T05:50:34.957Z,24.20
2019-06-10T05:53:06.166Z,24.50
2019-06-10T05:55:37.493Z,24.50
2019-06-10T05:58:08.199Z,24.30
2019-06-10T06:00:38.981Z,24.10
2019-06-10T06:03:11.960Z,23.90
2019-06-10T06:05:43.344Z,23.80
2019-06-10T06:08:14.076Z,23.60
2019-06-10T06:10:44.771Z,23.60
2019-06-10T06:13:15.501Z,23.20
2019-06-10T06:15:46.290Z,23.10
2019-06-10T06:18:17.167Z,23.00
2019-06-10T06:20:48.447Z,22.90
2019-06-10T06:23:19.134Z,22.70
2019-06-10T06:25:52.960Z,22.80
2019-06-10T06:28:22.991Z,22.80
2019-06-10T06:30:53.939Z,22.80
2019-06-10T06:33:24.751Z,22.80
2019-06-10T06:36:03.693Z,22.80
2019-06-10T06:38:40.619Z,22.90
2019-06-10T06:41:22.417Z,23.10
2019-06-10T06:43:53.204Z,23.30
2019-06-10T06:46:25.613Z,23.50
2019-06-10T06:48:56.326Z,23.50
2019-06-10T06:51:37.969Z,23.90
2019-06-10T06:53:59.619Z,24.20
2019-06-10T06:56:35.447Z,24.40
2019-06-10T06:59:04.837Z,24.70
2019-06-10T07:01:38.066Z,24.70
2019-06-10T07:04:12.858Z,24.70
2019-06-10T07:06:44.213Z,24.80
2019-06-10T07:09:15.964Z,24.70
2019-06-10T07:11:48.143Z,24.50
2019-06-10T07:14:23.163Z,24.30
2019-06-10T07:16:53.044Z,24.10
2019-06-10T07:19:26.059Z,23.90
2019-06-10T07:22:08.661Z,24.00
2019-06-10T07:24:29.063Z,23.90
2019-06-10T07:27:02.603Z,23.80
2019-06-10T07:29:34.109Z,23.70
2019-06-10T07:32:04.768Z,23.70
2019-06-10T07:34:37.112Z,23.70
2019-06-10T07:37:07.713Z,23.70
2019-06-10T07:39:39.497Z,23.60
2019-06-10T07:42:10.233Z,24.00
2019-06-10T07:44:43.167Z,24.20
2019-06-10T07:47:13.170Z,24.30
2019-06-10T07:49:45.415Z,24.40
2019-06-10T07:52:19.647Z,24.50
2019-06-10T07:54:52.770Z,24.60
2019-06-10T07:57:22.673Z,24.70
2019-06-10T07:59:53.354Z,24.90
2019-06-10T08:02:23.879Z,25.10
2019-06-10T08:04:54.587Z,25.40
2019-06-10T08:07:25.554Z,25.50
2019-06-10T08:09:56.082Z,25.60
2019-06-10T08:12:26.600Z,25.80
2019-06-10T08:14:57.140Z,26.00
2019-06-10T08:17:27.668Z,26.20
2019-06-10T08:19:58.332Z,26.60
2019-06-10T08:22:33.418Z,26.70
2019-06-10T08:25:04.823Z,26.90
2019-06-10T08:27:36.459Z,27.10
2019-06-10T08:30:21.063Z,27.20
2019-06-10T08:32:44.522Z,27.30
2019-06-10T08:35:13.154Z,27.40
2019-06-10T08:37:45.965Z,27.40
2019-06-10T08:40:16.506Z,27.40
2019-06-10T08:42:48.824Z,27.60
2019-06-10T08:45:22.750Z,27.80
2019-06-10T08:47:54.228Z,27.60
2019-06-10T08:50:25.128Z,27.40
2019-06-10T08:53:12.824Z,27.40
2019-06-10T08:55:29.470Z,27.30
2019-06-10T08:58:02.761Z,27.50
2019-06-10T09:00:37.386Z,27.70
2019-06-10T09:03:12.423Z,27.90
2019-06-10T09:05:47.462Z,28.10
2019-06-10T09:08:14.719Z,28.30
2019-06-10T09:10:49.149Z,28.40
2019-06-10T09:13:17.874Z,28.50
2019-06-10T09:16:06.883Z,28.40
2019-06-10T09:18:23.208Z,28.50
2019-06-10T09:20:55.981Z,28.40
2019-06-10T09:23:25.959Z,28.30
2019-06-10T09:25:57.753Z,28.10
2019-06-10T09:28:28.672Z,28.10
2019-06-10T09:30:59.914Z,28.00
2019-06-10T09:33:33.134Z,27.90
2019-06-10T09:36:03.957Z,27.90
2019-06-10T09:38:35.929Z,28.00
2019-06-10T09:41:07.194Z,28.10
2019-06-10T09:43:41.348Z,28.20
2019-06-10T09:46:12.633Z,28.20
2019-06-10T09:48:47.911Z,28.40
2019-06-10T09:51:16.948Z,28.40
2019-06-10T09:54:01.098Z,28.40
2019-06-10T09:56:20.191Z,28.70
2019-06-10T09:58:52.947Z,28.80
2019-06-10T10:01:24.571Z,28.80
2019-06-10T10:04:00.088Z,28.90
2019-06-10T10:06:29.874Z,28.90
2019-06-10T10:09:03.216Z,29.00
2019-06-10T10:11:32.794Z,29.10
2019-06-10T10:14:06.432Z,29.20
2019-06-10T10:16:36.912Z,29.30
2019-06-10T10:19:08.664Z,29.40
2019-06-10T10:21:41.303Z,29.50
2019-06-10T10:24:14.915Z,29.80
2019-06-10T10:26:48.234Z,30.00
2019-06-10T10:29:16.511Z,30.10
2019-06-10T10:31:49.478Z,30.30
2019-06-10T10:34:19.363Z,30.80
2019-06-10T10:36:54.399Z,31.40
2019-06-10T10:39:24.680Z,31.80
2019-06-10T10:41:57.252Z,32.20
2019-06-10T10:44:27.994Z,32.70
2019-06-10T10:46:58.508Z,32.80
2019-06-10T10:49:29.057Z,33.00
2019-06-10T10:52:02.592Z,33.20
2019-06-10T10:54:35.948Z,33.60
2019-06-10T10:57:10.275Z,33.80
2019-06-10T10:59:43.130Z,33.90
2019-06-10T11:02:13.084Z,34.10
2019-06-10T11:04:47.937Z,34.10
2019-06-10T11:07:18.576Z,34.20
2019-06-10T11:09:50.416Z,34.20
2019-06-10T11:12:22.923Z,35.00
2019-06-10T11:14:56.197Z,35.50
2019-06-10T11:17:26.603Z,35.50
2019-06-10T11:19:57.781Z,35.40
2019-06-10T11:22:28.415Z,35.70
2019-06-10T11:24:59.226Z,36.10
2019-06-10T11:27:30.825Z,35.80
2019-06-10T11:30:03.516Z,35.90
2019-06-10T11:32:34.063Z,35.90
2019-06-10T11:35:04.950Z,36.30
2019-06-10T11:37:36.895Z,37.00
2019-06-10T11:40:07.874Z,37.70
2019-06-10T11:42:38.757Z,38.30
2019-06-10T11:45:10.174Z,38.80
2019-06-10T11:47:42.601Z,38.50
2019-06-10T11:50:13.583Z,38.50
2019-06-10T11:52:44.188Z,38.60
2019-06-10T11:55:19.168Z,38.80
2019-06-10T11:57:48.218Z,38.30
2019-06-10T12:00:19.210Z,37.40
2019-06-10T12:02:50.923Z,37.10
2019-06-10T12:05:24.213Z,37.00
2019-06-10T12:07:58.291Z,36.80
2019-06-10T12:10:29.833Z,36.60
2019-06-10T12:13:07.112Z,36.60
2019-06-10T12:16:13.991Z,36.30
2019-06-10T12:18:08.775Z,36.50
2019-06-10T12:20:42.518Z,36.90
2019-06-10T12:23:12.798Z,37.10
2019-06-10T12:25:43.805Z,37.10
2019-06-10T12:28:16.468Z,36.20
2019-06-10T12:30:47.857Z,35.80
2019-06-10T12:33:22.202Z,36.00
2019-06-10T12:35:59.472Z,36.20
2019-06-10T12:38:27.988Z,36.20
2019-06-10T12:41:03.237Z,36.40
2019-06-10T12:43:33.885Z,36.40
2019-06-10T12:46:05.856Z,35.80
2019-06-10T12:48:37.117Z,36.00
2019-06-10T12:51:10.239Z,36.30
2019-06-10T12:53:43.264Z,36.40
2019-06-10T12:56:15.246Z,37.20
2019-06-10T12:58:46.251Z,37.90
2019-06-10T13:01:18.343Z,38.50
2019-06-10T13:03:49.451Z,38.40
2019-06-10T13:06:23.358Z,38.50
2019-06-10T13:08:56.722Z,38.90
2019-06-10T13:11:28.695Z,39.00
2019-06-10T13:14:04.034Z,38.90
2019-06-10T13:16:34.216Z,39.00
2019-06-10T13:19:07.900Z,39.20
2019-06-10T13:21:42.433Z,39.20
2019-06-10T13:24:13.756Z,39.30
2019-06-10T13:26:47.495Z,39.70
2019-06-10T13:29:18.056Z,39.70
2019-06-10T13:31:48.697Z,40.10
2019-06-10T13:34:22.127Z,40.70
2019-06-10T13:36:53.894Z,40.50
2019-06-10T13:39:26.929Z,39.90
2019-06-10T13:41:57.574Z,39.50
2019-06-10T13:44:28.198Z,38.70
2019-06-10T13:47:02.030Z,38.40
2019-06-10T13:49:33.106Z,38.50
2019-06-10T13:52:08.501Z,38.60
2019-06-10T13:54:36.844Z,38.50
2019-06-10T13:57:13.632Z,38.40
2019-06-10T13:59:46.414Z,38.50
2019-06-10T14:02:16.096Z,38.50
2019-06-10T14:04:47.763Z,38.40
2019-06-10T14:07:18.693Z,38.80
2019-06-10T14:09:50.329Z,39.30
2019-06-10T14:12:23.144Z,40.10
2019-06-10T14:14:53.636Z,40.60
2019-06-10T14:17:25.541Z,41.40
2019-06-10T14:19:56.532Z,42.40
2019-06-10T14:22:27.400Z,42.90
2019-06-10T14:24:58.171Z,42.60
2019-06-10T14:27:29.051Z,42.30
2019-06-10T14:30:02.235Z,42.70
2019-06-10T14:32:33.079Z,42.40
2019-06-10T14:35:07.010Z,42.10
2019-06-10T14:37:39.364Z,41.90
2019-06-10T14:40:13.307Z,41.90
2019-06-10T14:42:43.256Z,41.60
2019-06-10T14:45:16.619Z,41.00
2019-06-10T14:47:47.625Z,40.30
2019-06-10T14:50:23.016Z,39.50
2019-06-10T14:52:53.183Z,38.50
2019-06-10T14:55:23.740Z,37.30
2019-06-10T14:57:55.386Z,36.40
2019-06-10T15:00:26.167Z,35.50
2019-06-10T15:02:57.375Z,35.00
2019-06-10T15:05:28.187Z,34.30
2019-06-10T15:07:59.194Z,34.10
2019-06-10T15:10:32.241Z,33.70
2019-06-10T15:13:03.933Z,33.50
2019-06-10T15:15:35.579Z,33.40
2019-06-10T15:18:07.628Z,33.30
2019-06-10T15:20:42.794Z,33.00
2019-06-10T15:23:16.450Z,32.80
2019-06-10T15:25:52.866Z,32.70
2019-06-10T15:28:18.101Z,32.70
2019-06-10T15:30:48.821Z,32.70
2019-06-10T15:33:19.701Z,32.80
2019-06-10T15:35:52.969Z,32.80
2019-06-10T15:38:23.327Z,32.80
2019-06-10T15:40:54.145Z,32.80
2019-06-10T15:43:25.124Z,32.50
2019-06-10T15:45:55.827Z,32.40
2019-06-10T15:48:26.381Z,32.10
2019-06-10T15:50:57.253Z,32.00
2019-06-10T15:53:28.258Z,32.00
2019-06-10T15:56:14.421Z,31.90
2019-06-10T15:58:32.109Z,31.80
2019-06-10T16:01:05.328Z,31.80
2019-06-10T16:03:35.995Z,31.90
2019-06-10T16:06:07.263Z,31.90
2019-06-10T16:08:39.144Z,31.90
2019-06-10T16:11:10.618Z,31.90
2019-06-10T16:13:43.540Z,31.90
2019-06-10T16:16:14.952Z,31.90
2019-06-10T16:18:45.954Z,31.80
2019-06-10T16:21:17.458Z,31.90
2019-06-10T16:23:49.001Z,31.90
2019-06-10T16:26:20.032Z,31.90
2019-06-10T16:28:52.203Z,31.80
2019-06-10T16:31:25.561Z,31.70
2019-06-10T16:33:55.432Z,31.80
2019-06-10T16:36:32.023Z,31.80
2019-06-10T16:39:04.288Z,31.80
2019-06-10T16:41:37.305Z,31.80
2019-06-10T16:44:10.374Z,31.60
2019-06-10T16:46:43.157Z,31.60
2019-06-10T16:49:14.273Z,31.60
2019-06-10T16:51:45.227Z,31.60
2019-06-10T16:54:23.948Z,31.70
2019-06-10T16:56:53.102Z,31.70
2019-06-10T16:59:26.259Z,31.60
2019-06-10T17:01:57.781Z,31.60
2019-06-10T17:04:29.879Z,31.60
2019-06-10T17:07:02.213Z,31.50
2019-06-10T17:09:33.038Z,31.50
2019-06-10T17:12:04.579Z,31.50
2019-06-10T17:14:39.207Z,31.50
2019-06-10T17:17:14.951Z,31.50
2019-06-10T17:19:48.193Z,31.50
2019-06-10T17:22:24.086Z,31.50
2019-06-10T17:24:54.958Z,31.40
2019-06-10T17:27:27.905Z,31.20
2019-06-10T17:29:58.707Z,31.20
2019-06-10T17:32:30.278Z,31.20
2019-06-10T17:35:02.378Z,31.30
2019-06-10T17:37:34.248Z,31.30
2019-06-10T17:40:14.450Z,31.30
2019-06-10T17:42:46.039Z,31.10
2019-06-10T17:45:22.567Z,31.20
2019-06-10T17:47:54.437Z,31.00
2019-06-10T17:50:26.521Z,31.00
2019-06-10T17:52:57.848Z,30.90
2019-06-10T17:55:29.644Z,30.80
2019-06-10T17:58:07.547Z,30.80
2019-06-10T18:00:42.065Z,30.80
2019-06-10T18:03:13.573Z,30.70
2019-06-10T18:05:46.526Z,30.80
2019-06-10T18:08:18.598Z,30.70
2019-06-10T18:10:53.485Z,30.60
2019-06-10T18:13:30.058Z,30.50
2019-06-10T18:16:08.183Z,30.40
2019-06-10T18:18:43.794Z,30.30
2019-06-10T18:21:15.044Z,30.20
2019-06-10T18:23:46.026Z,30.20
2019-06-10T18:26:16.735Z,30.20
2019-06-10T18:29:04.444Z,30.20
2019-06-10T18:31:23.127Z,30.00
2019-06-10T18:33:53.178Z,30.00
2019-06-10T18:36:32.674Z,29.90
2019-06-10T18:39:07.068Z,29.90
2019-06-10T18:41:41.876Z,29.80
2019-06-10T18:44:22.476Z,29.70
2019-06-10T18:46:47.890Z,29.60
2019-06-10T18:49:22.659Z,29.60
2019-06-10T18:51:53.683Z,29.50
2019-06-10T18:54:25.157Z,29.50
2019-06-10T18:56:57.570Z,29.40
2019-06-10T18:59:33.153Z,29.40
2019-06-10T19:02:08.436Z,29.30
2019-06-10T19:04:40.334Z,29.30
2019-06-10T19:07:14.421Z,29.30
2019-06-10T19:09:48.039Z,29.20
2019-06-10T19:12:17.765Z,29.10
2019-06-10T19:14:48.545Z,29.10
2019-06-10T19:17:23.644Z,29.10
2019-06-10T19:19:55.326Z,29.00
2019-06-10T19:22:26.019Z,29.00
2019-06-10T19:24:57.539Z,28.90
2019-06-10T19:27:28.747Z,28.90
2019-06-10T19:29:59.395Z,28.90
2019-06-10T19:32:36.706Z,28.90
2019-06-10T19:35:13.128Z,28.90
2019-06-10T19:37:43.923Z,28.90
2019-06-10T19:40:16.195Z,28.90
2019-06-10T19:42:46.976Z,28.90
2019-06-10T19:45:18.092Z,28.80
2019-06-10T19:47:52.292Z,28.70
2019-06-10T19:50:23.349Z,28.70
2019-06-10T19:52:56.750Z,28.70
2019-06-10T19:55:29.367Z,28.70
2019-06-10T19:58:03.773Z,28.70
2019-06-10T20:00:35.930Z,28.60
2019-06-10T20:03:08.578Z,28.60
2019-06-10T20:05:40.058Z,28.40
2019-06-10T20:08:12.117Z,28.20
2019-06-10T20:10:44.481Z,28.10
2019-06-10T20:13:15.203Z,28.00
2019-06-10T20:15:47.978Z,27.90
2019-06-10T20:18:18.765Z,27.90
2019-06-10T20:20:49.329Z,27.90
2019-06-10T20:23:19.898Z,27.90
2019-06-10T20:25:52.700Z,27.90
2019-06-10T20:28:22.992Z,27.90
2019-06-10T20:31:12.728Z,27.90
2019-06-10T20:33:48.896Z,27.90
2019-06-10T20:36:23.296Z,27.90
2019-06-10T20:38:53.518Z,27.90
2019-06-10T20:41:24.571Z,27.80
2019-06-10T20:43:55.540Z,27.50
2019-06-10T20:46:26.503Z,27.80
2019-06-10T20:49:00.177Z,27.60
2019-06-10T20:51:46.191Z,27.80
2019-06-10T20:54:05.677Z,27.70
2019-06-10T20:56:38.594Z,27.70
2019-06-10T20:59:13.002Z,27.60
2019-06-10T21:01:44.412Z,27.50
2019-06-10T21:04:15.241Z,27.50
2019-06-10T21:06:47.661Z,27.40
2019-06-10T21:09:19.169Z,27.40
2019-06-10T21:11:51.036Z,27.30
2019-06-10T21:14:22.903Z,27.30
2019-06-10T21:16:53.817Z,27.20
2019-06-10T21:19:25.970Z,27.20
2019-06-10T21:21:56.793Z,27.20
2019-06-10T21:24:28.095Z,27.20
2019-06-10T21:26:59.219Z,27.10
2019-06-10T21:29:32.166Z,27.10
2019-06-10T21:32:03.675Z,27.00
2019-06-10T21:34:38.021Z,27.00
2019-06-10T21:37:08.722Z,26.70
2019-06-10T21:39:44.200Z,26.70
2019-06-10T21:42:13.091Z,26.70
2019-06-10T21:44:43.881Z,26.40
2019-06-10T21:47:14.614Z,26.70
2019-06-10T21:49:46.984Z,26.50
2019-06-10T21:52:17.619Z,26.50
2019-06-10T21:54:48.610Z,26.40
2019-06-10T21:57:19.396Z,26.30
2019-06-10T21:59:51.514Z,26.30
2019-06-10T22:02:23.101Z,26.20
2019-06-10T22:04:56.111Z,26.00
2019-06-10T22:07:26.768Z,25.90
2019-06-10T22:09:57.371Z,25.80
2019-06-10T22:12:27.942Z,25.80
2019-06-10T22:14:59.804Z,25.30
2019-06-10T22:17:30.513Z,25.80
2019-06-10T22:20:01.420Z,25.80
2019-06-10T22:22:32.347Z,25.80
2019-06-10T22:25:07.109Z,25.80
2019-06-10T22:27:37.867Z,25.80
2019-06-10T22:30:11.550Z,25.80
2019-06-10T22:32:42.953Z,25.80
2019-06-10T22:35:13.614Z,25.60
2019-06-10T22:37:45.600Z,25.60
2019-06-10T22:40:16.788Z,25.60
2019-06-10T22:42:47.521Z,25.60
2019-06-10T22:45:18.169Z,25.60
2019-06-10T22:47:49.719Z,25.50
2019-06-10T22:50:22.958Z,25.50
2019-06-10T22:52:55.593Z,25.40
2019-06-10T22:55:26.445Z,25.40
2019-06-10T22:57:59.745Z,25.30
2019-06-10T23:00:29.272Z,25.20
2019-06-10T23:03:02.548Z,25.30
2019-06-10T23:05:33.262Z,25.30
2019-06-10T23:08:04.117Z,25.20
2019-06-10T23:10:35.485Z,25.20
2019-06-10T23:13:07.782Z,25.20
2019-06-10T23:15:38.593Z,25.30
2019-06-10T23:18:12.477Z,25.30
2019-06-10T23:20:42.712Z,25.00
2019-06-10T23:23:13.979Z,25.40
2019-06-10T23:25:44.898Z,25.40
2019-06-10T23:28:15.990Z,25.40
2019-06-10T23:30:47.255Z,25.40
2019-06-10T23:33:17.873Z,25.30
2019-06-10T23:35:48.459Z,25.40
2019-06-10T23:38:19.152Z,25.40
2019-06-10T23:40:50.666Z,25.30
2019-06-10T23:43:22.555Z,25.20
2019-06-10T23:45:53.362Z,25.20
2019-06-10T23:48:23.987Z,25.20
2019-06-10T23:50:56.084Z,25.10
2019-06-10T23:53:27.136Z,25.10
2019-06-10T23:55:58.035Z,25.10
2019-06-10T23:58:32.863Z,25.10
